sensor_id;sensor_type;location;lat;lon;timestamp;temperature;humidity
8593;DHT22;4334;49.982;8.398;2023-03-14T00:00:12;10.20;99.90
8593;DHT22;4334;49.982;8.398;2023-03-14T00:02:40;10.20;99.90
8593;DHT22;4334;49.982;8.398;2023-03-14T00:05:08;10.10;99.90
8593;DHT22;4334;49.982;8.398;2023-03-14T00:07:37;10.10;99.90
8593;DHT22;4334;49.982;8.398;2023-03-14T00:10:05;10.10;99.90
8593;DHT22;4334;49.982;8.398;2023-03-14T00:12:32;10.30;99.90
8593;DHT22;4334;49.982;8.398;2023-03-14T00:14:59;10.30;99.90
8593;DHT22;4334;49.982;8.398;2023-03-14T00:17:30;10.40;99.90
8593;DHT22;4334;49.982;8.398;2023-03-14T00:19:57;10.50;99.90
8593;DHT22;4334;49.982;8.398;2023-03-14T00:22:29;10.50;99.90
8593;DHT22;4334;49.982;8.398;2023-03-14T00:24:56;14.10;99.90
8593;DHT22;4334;49.982;8.398;2023-03-14T00:27:23;10.70;99.90
8593;DHT22;4334;49.982;8.398;2023-03-14T00:29:50;10.70;99.90
8593;DHT22;4334;49.982;8.398;2023-03-14T00:32:16;10.90;99.90
8593;DHT22;4334;49.982;8.398;2023-03-14T00:34:44;10.90;99.90
8593;DHT22;4334;49.982;8.398;2023-03-14T00:37:11;12.90;99.90
8593;DHT22;4334;49.982;8.398;2023-03-14T00:39:38;11.00;99.90
8593;DHT22;4334;49.982;8.398;2023-03-14T00:42:04;11.10;99.90
8593;DHT22;4334;49.982;8.398;2023-03-14T00:44:31;11.10;99.90
8593;DHT22;4334;49.982;8.398;2023-03-14T00:46:58;11.10;99.90
8593;DHT22;4334;49.982;8.398;2023-03-14T00:49:26;11.10;99.90
8593;DHT22;4334;49.982;8.398;2023-03-14T00:51:54;11.00;99.90
8593;DHT22;4334;49.982;8.398;2023-03-14T00:54:21;10.90;99.90
8593;DHT22;4334;49.982;8.398;2023-03-14T00:56:48;10.90;99.90
8593;DHT22;4334;49.982;8.398;2023-03-14T00:59:15;10.90;99.90
8593;DHT22;4334;49.982;8.398;2023-03-14T01:01:42;13.90;99.90
8593;DHT22;4334;49.982;8.398;2023-03-14T01:04:09;11.00;99.90
8593;DHT22;4334;49.982;8.398;2023-03-14T01:06:36;11.10;99.90
8593;DHT22;4334;49.982;8.398;2023-03-14T01:09:04;11.10;99.90
8593;DHT22;4334;49.982;8.398;2023-03-14T01:11:33;11.10;99.90
8593;DHT22;4334;49.982;8.398;2023-03-14T01:14:00;11.10;99.90
8593;DHT22;4334;49.982;8.398;2023-03-14T01:16:30;12.20;99.90
8593;DHT22;4334;49.982;8.398;2023-03-14T01:18:57;11.20;99.90
8593;DHT22;4334;49.982;8.398;2023-03-14T01:21:27;11.20;99.90
8593;DHT22;4334;49.982;8.398;2023-03-14T01:23:55;11.30;99.90
8593;DHT22;4334;49.982;8.398;2023-03-14T01:26:26;11.20;99.90
8593;DHT22;4334;49.982;8.398;2023-03-14T01:28:55;11.20;99.90
8593;DHT22;4334;49.982;8.398;2023-03-14T01:31:22;11.20;99.90
8593;DHT22;4334;49.982;8.398;2023-03-14T01:33:49;11.20;99.90
8593;DHT22;4334;49.982;8.398;2023-03-14T01:36:16;11.20;99.90
8593;DHT22;4334;49.982;8.398;2023-03-14T01:38:43;11.20;99.90
8593;DHT22;4334;49.982;8.398;2023-03-14T01:41:14;11.20;99.90
8593;DHT22;4334;49.982;8.398;2023-03-14T01:43:42;12.30;99.90
8593;DHT22;4334;49.982;8.398;2023-03-14T01:46:28;11.20;99.90
8593;DHT22;4334;49.982;8.398;2023-03-14T01:48:59;11.20;99.90
8593;DHT22;4334;49.982;8.398;2023-03-14T01:51:33;11.20;99.90
8593;DHT22;4334;49.982;8.398;2023-03-14T01:54:05;14.00;99.90
8593;DHT22;4334;49.982;8.398;2023-03-14T01:56:33;11.10;99.90
8593;DHT22;4334;49.982;8.398;2023-03-14T01:59:04;11.10;99.90
8593;DHT22;4334;49.982;8.398;2023-03-14T02:01:33;13.30;99.90
8593;DHT22;4334;49.982;8.398;2023-03-14T02:04:03;11.20;99.90
8593;DHT22;4334;49.982;8.398;2023-03-14T02:06:36;11.20;99.90
8593;DHT22;4334;49.982;8.398;2023-03-14T02:09:06;11.20;99.90
8593;DHT22;4334;49.982;8.398;2023-03-14T02:11:32;11.20;99.90
8593;DHT22;4334;49.982;8.398;2023-03-14T02:14:02;11.20;99.90
8593;DHT22;4334;49.982;8.398;2023-03-14T02:16:30;11.20;99.90
8593;DHT22;4334;49.982;8.398;2023-03-14T02:18:57;11.10;99.90
8593;DHT22;4334;49.982;8.398;2023-03-14T02:21:29;11.10;99.90
8593;DHT22;4334;49.982;8.398;2023-03-14T02:24:09;10.90;99.90
8593;DHT22;4334;49.982;8.398;2023-03-14T02:26:41;10.90;99.90
8593;DHT22;4334;49.982;8.398;2023-03-14T02:29:10;10.90;99.90
8593;DHT22;4334;49.982;8.398;2023-03-14T02:31:37;10.90;99.90
8593;DHT22;4334;49.982;8.398;2023-03-14T02:34:05;10.90;99.90
8593;DHT22;4334;49.982;8.398;2023-03-14T02:36:32;11.00;99.90
8593;DHT22;4334;49.982;8.398;2023-03-14T02:39:06;10.90;99.90
8593;DHT22;4334;49.982;8.398;2023-03-14T02:41:33;10.90;99.90
8593;DHT22;4334;49.982;8.398;2023-03-14T02:44:00;10.80;99.90
8593;DHT22;4334;49.982;8.398;2023-03-14T02:46:29;10.80;99.90
8593;DHT22;4334;49.982;8.398;2023-03-14T02:48:58;11.30;99.90
8593;DHT22;4334;49.982;8.398;2023-03-14T02:51:29;10.80;99.90
8593;DHT22;4334;49.982;8.398;2023-03-14T02:53:56;13.10;99.90
8593;DHT22;4334;49.982;8.398;2023-03-14T02:56:22;10.90;99.90
8593;DHT22;4334;49.982;8.398;2023-03-14T04:37:07;10.70;99.90
8593;DHT22;4334;49.982;8.398;2023-03-14T04:39:34;10.70;99.90
8593;DHT22;4334;49.982;8.398;2023-03-14T04:42:00;10.60;99.90
8593;DHT22;4334;49.982;8.398;2023-03-14T04:44:27;10.60;99.90
8593;DHT22;4334;49.982;8.398;2023-03-14T04:46:54;10.60;99.90
8593;DHT22;4334;49.982;8.398;2023-03-14T04:49:21;10.60;99.90
8593;DHT22;4334;49.982;8.398;2023-03-14T04:51:47;10.60;99.90
8593;DHT22;4334;49.982;8.398;2023-03-14T04:54:17;10.60;99.90
8593;DHT22;4334;49.982;8.398;2023-03-14T04:56:44;10.60;99.90
8593;DHT22;4334;49.982;8.398;2023-03-14T04:59:11;10.60;99.90
8593;DHT22;4334;49.982;8.398;2023-03-14T05:01:38;10.60;99.90
8593;DHT22;4334;49.982;8.398;2023-03-14T05:04:04;10.60;99.90
8593;DHT22;4334;49.982;8.398;2023-03-14T05:06:31;10.70;99.90
8593;DHT22;4334;49.982;8.398;2023-03-14T05:08:58;10.60;99.90
8593;DHT22;4334;49.982;8.398;2023-03-14T05:11:26;10.70;99.90
8593;DHT22;4334;49.982;8.398;2023-03-14T05:13:53;10.70;99.90
8593;DHT22;4334;49.982;8.398;2023-03-14T05:16:20;13.30;99.90
8593;DHT22;4334;49.982;8.398;2023-03-14T05:18:47;10.70;99.90
8593;DHT22;4334;49.982;8.398;2023-03-14T05:21:13;10.70;99.90
8593;DHT22;4334;49.982;8.398;2023-03-14T05:23:40;10.70;99.90
8593;DHT22;4334;49.982;8.398;2023-03-14T05:26:07;10.70;99.90
8593;DHT22;4334;49.982;8.398;2023-03-14T05:28:35;12.60;99.90
8593;DHT22;4334;49.982;8.398;2023-03-14T05:31:06;10.70;99.90
8593;DHT22;4334;49.982;8.398;2023-03-14T05:33:33;12.50;99.90
8593;DHT22;4334;49.982;8.398;2023-03-14T05:36:00;10.70;99.90
8593;DHT22;4334;49.982;8.398;2023-03-14T05:38:26;10.70;99.90
8593;DHT22;4334;49.982;8.398;2023-03-14T05:40:53;14.60;99.90
8593;DHT22;4334;49.982;8.398;2023-03-14T05:43:20;10.80;99.90
8593;DHT22;4334;49.982;8.398;2023-03-14T05:45:48;10.70;99.90
8593;DHT22;4334;49.982;8.398;2023-03-14T05:48:15;10.80;99.90
8593;DHT22;4334;49.982;8.398;2023-03-14T05:50:42;10.80;99.90
8593;DHT22;4334;49.982;8.398;2023-03-14T05:53:09;10.80;99.90
8593;DHT22;4334;49.982;8.398;2023-03-14T05:55:36;10.70;99.90
8593;DHT22;4334;49.982;8.398;2023-03-14T05:58:02;10.70;99.90
8593;DHT22;4334;49.982;8.398;2023-03-14T06:00:29;10.80;99.90
8593;DHT22;4334;49.982;8.398;2023-03-14T06:02:57;12.20;99.90
8593;DHT22;4334;49.982;8.398;2023-03-14T06:05:24;10.90;99.90
8593;DHT22;4334;49.982;8.398;2023-03-14T06:07:51;10.90;99.90
8593;DHT22;4334;49.982;8.398;2023-03-14T06:10:18;10.90;99.90
8593;DHT22;4334;49.982;8.398;2023-03-14T06:12:45;10.80;99.90
8593;DHT22;4334;49.982;8.398;2023-03-14T06:15:11;10.80;99.90
8593;DHT22;4334;49.982;8.398;2023-03-14T06:17:38;10.90;99.90
8593;DHT22;4334;49.982;8.398;2023-03-14T06:20:08;10.80;99.90
8593;DHT22;4334;49.982;8.398;2023-03-14T06:22:35;10.80;99.90
8593;DHT22;4334;49.982;8.398;2023-03-14T06:25:02;10.80;99.90
8593;DHT22;4334;49.982;8.398;2023-03-14T06:27:29;10.80;99.90
8593;DHT22;4334;49.982;8.398;2023-03-14T06:29:56;10.80;99.90
8593;DHT22;4334;49.982;8.398;2023-03-14T06:32:23;10.90;99.90
8593;DHT22;4334;49.982;8.398;2023-03-14T06:34:50;10.90;99.90
8593;DHT22;4334;49.982;8.398;2023-03-14T06:37:18;10.90;99.90
8593;DHT22;4334;49.982;8.398;2023-03-14T06:39:45;11.00;99.90
8593;DHT22;4334;49.982;8.398;2023-03-14T06:42:12;15.00;99.90
8593;DHT22;4334;49.982;8.398;2023-03-14T06:44:38;11.00;99.90
8593;DHT22;4334;49.982;8.398;2023-03-14T06:57:11;11.10;99.90
8593;DHT22;4334;49.982;8.398;2023-03-14T07:06:23;11.20;99.90
8593;DHT22;4334;49.982;8.398;2023-03-14T07:08:50;11.30;99.90
8593;DHT22;4334;49.982;8.398;2023-03-14T07:11:17;11.30;99.90
8593;DHT22;4334;49.982;8.398;2023-03-14T07:13:45;11.30;99.90
8593;DHT22;4334;49.982;8.398;2023-03-14T07:16:12;11.30;99.90
8593;DHT22;4334;49.982;8.398;2023-03-14T07:18:39;11.30;99.90
8593;DHT22;4334;49.982;8.398;2023-03-14T07:21:06;11.30;99.90
8593;DHT22;4334;49.982;8.398;2023-03-14T07:23:34;11.20;99.90
8593;DHT22;4334;49.982;8.398;2023-03-14T07:26:01;11.20;99.90
8593;DHT22;4334;49.982;8.398;2023-03-14T07:28:28;11.20;99.90
8593;DHT22;4334;49.982;8.398;2023-03-14T07:30:57;11.10;99.90
8593;DHT22;4334;49.982;8.398;2023-03-14T07:33:23;14.70;99.90
8593;DHT22;4334;49.982;8.398;2023-03-14T07:35:50;11.20;99.90
8593;DHT22;4334;49.982;8.398;2023-03-14T07:38:17;11.30;99.90
8593;DHT22;4334;49.982;8.398;2023-03-14T07:40:44;11.30;99.90
8593;DHT22;4334;49.982;8.398;2023-03-14T07:43:14;13.60;99.90
8593;DHT22;4334;49.982;8.398;2023-03-14T07:45:41;11.30;99.90
8593;DHT22;4334;49.982;8.398;2023-03-14T07:48:09;11.30;99.90
8593;DHT22;4334;49.982;8.398;2023-03-14T07:50:36;11.30;99.90
8593;DHT22;4334;49.982;8.398;2023-03-14T07:53:03;11.40;99.90
8593;DHT22;4334;49.982;8.398;2023-03-14T07:55:30;11.40;99.90
8593;DHT22;4334;49.982;8.398;2023-03-14T07:57:56;11.40;99.90
8593;DHT22;4334;49.982;8.398;2023-03-14T08:00:23;11.50;99.90
8593;DHT22;4334;49.982;8.398;2023-03-14T08:02:50;12.60;99.90
8593;DHT22;4334;49.982;8.398;2023-03-14T08:05:18;11.60;99.90
8593;DHT22;4334;49.982;8.398;2023-03-14T08:07:45;11.50;99.90
8593;DHT22;4334;49.982;8.398;2023-03-14T08:10:13;11.60;99.90
8593;DHT22;4334;49.982;8.398;2023-03-14T08:12:47;11.50;99.90
8593;DHT22;4334;49.982;8.398;2023-03-14T08:15:14;11.60;99.90
8593;DHT22;4334;49.982;8.398;2023-03-14T08:17:41;11.60;99.90
8593;DHT22;4334;49.982;8.398;2023-03-14T08:20:08;11.70;99.90
8593;DHT22;4334;49.982;8.398;2023-03-14T08:22:39;11.90;99.90
8593;DHT22;4334;49.982;8.398;2023-03-14T08:28:20;11.80;99.90
8593;DHT22;4334;49.982;8.398;2023-03-14T08:30:47;11.70;99.90
8593;DHT22;4334;49.982;8.398;2023-03-14T08:33:14;13.70;99.90
8593;DHT22;4334;49.982;8.398;2023-03-14T08:35:41;11.80;99.90
8593;DHT22;4334;49.982;8.398;2023-03-14T08:38:09;12.20;99.90
8593;DHT22;4334;49.982;8.398;2023-03-14T08:40:36;12.80;99.90
8593;DHT22;4334;49.982;8.398;2023-03-14T08:43:03;12.90;99.90
8593;DHT22;4334;49.982;8.398;2023-03-14T08:45:30;13.00;99.90
8593;DHT22;4334;49.982;8.398;2023-03-14T08:47:57;12.70;99.90
8593;DHT22;4334;49.982;8.398;2023-03-14T08:50:25;12.40;99.90
8593;DHT22;4334;49.982;8.398;2023-03-14T08:52:52;12.30;99.90
8593;DHT22;4334;49.982;8.398;2023-03-14T08:55:20;14.80;99.90
8593;DHT22;4334;49.982;8.398;2023-03-14T08:57:47;13.30;99.90
8593;DHT22;4334;49.982;8.398;2023-03-14T09:00:15;13.70;99.90
8593;DHT22;4334;49.982;8.398;2023-03-14T09:02:42;13.70;99.90
8593;DHT22;4334;49.982;8.398;2023-03-14T09:05:09;13.40;99.90
8593;DHT22;4334;49.982;8.398;2023-03-14T09:07:37;13.40;99.90
8593;DHT22;4334;49.982;8.398;2023-03-14T09:10:05;13.10;99.90
8593;DHT22;4334;49.982;8.398;2023-03-14T09:12:33;13.20;99.90
8593;DHT22;4334;49.982;8.398;2023-03-14T09:15:00;13.10;99.90
8593;DHT22;4334;49.982;8.398;2023-03-14T09:17:27;13.20;99.90
8593;DHT22;4334;49.982;8.398;2023-03-14T09:19:54;12.90;99.90
8593;DHT22;4334;49.982;8.398;2023-03-14T09:22:21;12.80;99.90
8593;DHT22;4334;49.982;8.398;2023-03-14T09:24:47;12.70;99.90
8593;DHT22;4334;49.982;8.398;2023-03-14T09:27:14;12.60;99.90
8593;DHT22;4334;49.982;8.398;2023-03-14T09:29:42;12.50;99.90
8593;DHT22;4334;49.982;8.398;2023-03-14T09:32:09;12.40;99.90
8593;DHT22;4334;49.982;8.398;2023-03-14T09:34:36;12.30;99.90
8593;DHT22;4334;49.982;8.398;2023-03-14T09:37:02;16.30;99.90
8593;DHT22;4334;49.982;8.398;2023-03-14T09:39:29;12.20;99.90
8593;DHT22;4334;49.982;8.398;2023-03-14T09:41:57;12.20;99.90
8593;DHT22;4334;49.982;8.398;2023-03-14T09:44:30;12.20;99.90
8593;DHT22;4334;49.982;8.398;2023-03-14T09:47:03;12.20;99.90
8593;DHT22;4334;49.982;8.398;2023-03-14T09:49:33;12.30;99.90
8593;DHT22;4334;49.982;8.398;2023-03-14T09:52:04;12.30;99.90
8593;DHT22;4334;49.982;8.398;2023-03-14T09:54:35;12.30;99.90
8593;DHT22;4334;49.982;8.398;2023-03-14T09:57:05;12.40;99.90
8593;DHT22;4334;49.982;8.398;2023-03-14T09:59:33;12.40;99.90
8593;DHT22;4334;49.982;8.398;2023-03-14T10:02:13;16.50;99.90
8593;DHT22;4334;49.982;8.398;2023-03-14T10:04:41;12.40;99.90
8593;DHT22;4334;49.982;8.398;2023-03-14T10:07:13;12.40;99.90
8593;DHT22;4334;49.982;8.398;2023-03-14T10:09:43;12.50;99.90
8593;DHT22;4334;49.982;8.398;2023-03-14T10:12:11;12.50;99.90
8593;DHT22;4334;49.982;8.398;2023-03-14T10:14:45;12.60;99.90
8593;DHT22;4334;49.982;8.398;2023-03-14T10:17:14;12.50;99.90
8593;DHT22;4334;49.982;8.398;2023-03-14T10:19:52;12.50;99.90
8593;DHT22;4334;49.982;8.398;2023-03-14T10:22:20;12.50;99.90
8593;DHT22;4334;49.982;8.398;2023-03-14T10:24:52;12.30;99.90
8593;DHT22;4334;49.982;8.398;2023-03-14T10:27:21;12.30;99.90
8593;DHT22;4334;49.982;8.398;2023-03-14T10:29:53;12.30;99.90
8593;DHT22;4334;49.982;8.398;2023-03-14T10:32:28;12.10;99.90
8593;DHT22;4334;49.982;8.398;2023-03-14T10:35:19;12.10;99.90
8593;DHT22;4334;49.982;8.398;2023-03-14T10:37:51;12.10;99.90
8593;DHT22;4334;49.982;8.398;2023-03-14T10:40:26;13.50;99.90
8593;DHT22;4334;49.982;8.398;2023-03-14T10:42:53;12.10;99.90
8593;DHT22;4334;49.982;8.398;2023-03-14T10:45:32;12.20;99.90
8593;DHT22;4334;49.982;8.398;2023-03-14T10:48:15;12.20;99.90
8593;DHT22;4334;49.982;8.398;2023-03-14T10:50:48;12.30;99.90
8593;DHT22;4334;49.982;8.398;2023-03-14T10:53:17;12.30;99.90
8593;DHT22;4334;49.982;8.398;2023-03-14T10:55:45;12.30;99.90
8593;DHT22;4334;49.982;8.398;2023-03-14T10:58:26;12.50;99.90
8593;DHT22;4334;49.982;8.398;2023-03-14T11:01:00;12.50;99.90
8593;DHT22;4334;49.982;8.398;2023-03-14T11:03:32;12.50;99.90
8593;DHT22;4334;49.982;8.398;2023-03-14T11:06:06;16.20;99.90
8593;DHT22;4334;49.982;8.398;2023-03-14T11:08:42;12.50;99.90
8593;DHT22;4334;49.982;8.398;2023-03-14T11:11:15;12.60;99.90
8593;DHT22;4334;49.982;8.398;2023-03-14T11:13:53;12.50;99.90
8593;DHT22;4334;49.982;8.398;2023-03-14T11:16:27;12.40;99.90
8593;DHT22;4334;49.982;8.398;2023-03-14T11:19:27;12.30;99.90
8593;DHT22;4334;49.982;8.398;2023-03-14T11:25:43;12.40;99.90
8593;DHT22;4334;49.982;8.398;2023-03-14T11:28:18;12.60;99.90
8593;DHT22;4334;49.982;8.398;2023-03-14T11:30:51;12.70;99.90
8593;DHT22;4334;49.982;8.398;2023-03-14T11:33:21;12.80;99.90
8593;DHT22;4334;49.982;8.398;2023-03-14T11:35:55;13.00;99.90
8593;DHT22;4334;49.982;8.398;2023-03-14T11:38:30;13.10;99.90
8593;DHT22;4334;49.982;8.398;2023-03-14T11:41:00;13.10;99.90
8593;DHT22;4334;49.982;8.398;2023-03-14T11:43:30;13.10;99.90
8593;DHT22;4334;49.982;8.398;2023-03-14T11:46:03;12.90;99.90
8593;DHT22;4334;49.982;8.398;2023-03-14T11:48:37;12.90;99.90
8593;DHT22;4334;49.982;8.398;2023-03-14T11:51:11;12.80;99.90
8593;DHT22;4334;49.982;8.398;2023-03-14T11:53:45;15.70;99.90
8593;DHT22;4334;49.982;8.398;2023-03-14T11:56:19;11.80;99.90
8593;DHT22;4334;49.982;8.398;2023-03-14T11:58:54;11.70;99.90
8593;DHT22;4334;49.982;8.398;2023-03-14T12:01:25;11.60;99.90
8593;DHT22;4334;49.982;8.398;2023-03-14T12:03:57;11.50;99.90
8593;DHT22;4334;49.982;8.398;2023-03-14T12:06:30;11.40;99.90
8593;DHT22;4334;49.982;8.398;2023-03-14T12:08:58;11.20;99.90
8593;DHT22;4334;49.982;8.398;2023-03-14T12:11:33;11.10;99.90
8593;DHT22;4334;49.982;8.398;2023-03-14T12:14:02;11.60;99.90
8593;DHT22;4334;49.982;8.398;2023-03-14T12:16:37;11.10;99.90
8593;DHT22;4334;49.982;8.398;2023-03-14T12:19:32;11.10;99.90
8593;DHT22;4334;49.982;8.398;2023-03-14T12:22:13;11.50;99.90
8593;DHT22;4334;49.982;8.398;2023-03-14T12:24:45;11.60;99.90
8593;DHT22;4334;49.982;8.398;2023-03-14T12:27:48;11.50;99.90
8593;DHT22;4334;49.982;8.398;2023-03-14T12:33:38;11.50;99.90
8593;DHT22;4334;49.982;8.398;2023-03-14T12:36:20;11.90;99.90
8593;DHT22;4334;49.982;8.398;2023-03-14T12:39:10;12.20;99.90
8593;DHT22;4334;49.982;8.398;2023-03-14T12:41:44;12.00;99.90
8593;DHT22;4334;49.982;8.398;2023-03-14T12:44:44;11.80;99.90
8593;DHT22;4334;49.982;8.398;2023-03-14T12:47:48;11.80;99.90
8593;DHT22;4334;49.982;8.398;2023-03-14T12:50:25;11.90;99.90
8593;DHT22;4334;49.982;8.398;2023-03-14T12:55:58;11.80;99.90
8593;DHT22;4334;49.982;8.398;2023-03-14T12:58:32;12.30;99.90
8593;DHT22;4334;49.982;8.398;2023-03-14T13:01:04;11.80;99.90
8593;DHT22;4334;49.982;8.398;2023-03-14T13:03:45;11.70;99.90
8593;DHT22;4334;49.982;8.398;2023-03-14T13:06:12;11.70;99.90
8593;DHT22;4334;49.982;8.398;2023-03-14T13:08:42;11.40;99.90
8593;DHT22;4334;49.982;8.398;2023-03-14T13:11:12;15.30;99.90
8593;DHT22;4334;49.982;8.398;2023-03-14T13:13:44;11.40;99.90
8593;DHT22;4334;49.982;8.398;2023-03-14T13:16:15;11.70;99.90
8593;DHT22;4334;49.982;8.398;2023-03-14T13:18:44;11.80;99.90
8593;DHT22;4334;49.982;8.398;2023-03-14T13:21:14;11.40;99.90
8593;DHT22;4334;49.982;8.398;2023-03-14T13:23:54;12.20;99.90
8593;DHT22;4334;49.982;8.398;2023-03-14T13:26:24;10.20;99.90
8593;DHT22;4334;49.982;8.398;2023-03-14T13:28:51;9.90;99.90
8593;DHT22;4334;49.982;8.398;2023-03-14T13:31:22;9.30;99.90
8593;DHT22;4334;49.982;8.398;2023-03-14T13:33:59;9.10;99.90
8593;DHT22;4334;49.982;8.398;2023-03-14T13:36:26;9.10;99.90
8593;DHT22;4334;49.982;8.398;2023-03-14T13:38:57;9.10;99.90
8593;DHT22;4334;49.982;8.398;2023-03-14T13:41:26;9.10;99.90
8593;DHT22;4334;49.982;8.398;2023-03-14T13:44:00;9.20;99.90
8593;DHT22;4334;49.982;8.398;2023-03-14T13:46:28;9.60;99.90
8593;DHT22;4334;49.982;8.398;2023-03-14T13:48:58;10.00;99.90
8593;DHT22;4334;49.982;8.398;2023-03-14T13:51:28;10.40;99.90
8593;DHT22;4334;49.982;8.398;2023-03-14T13:53:58;10.60;99.90
8593;DHT22;4334;49.982;8.398;2023-03-14T13:56:28;11.20;99.90
8593;DHT22;4334;49.982;8.398;2023-03-14T13:58:55;11.70;99.90
8593;DHT22;4334;49.982;8.398;2023-03-14T14:01:24;11.90;99.90
8593;DHT22;4334;49.982;8.398;2023-03-14T14:03:53;11.70;99.90
8593;DHT22;4334;49.982;8.398;2023-03-14T14:06:27;12.10;99.90
8593;DHT22;4334;49.982;8.398;2023-03-14T14:08:55;12.40;99.90
8593;DHT22;4334;49.982;8.398;2023-03-14T14:11:37;11.90;99.90
8593;DHT22;4334;49.982;8.398;2023-03-14T14:14:09;11.70;99.90
8593;DHT22;4334;49.982;8.398;2023-03-14T14:16:37;10.90;99.90
8593;DHT22;4334;49.982;8.398;2023-03-14T14:19:04;12.30;99.90
8593;DHT22;4334;49.982;8.398;2023-03-14T14:21:31;10.60;99.90
8593;DHT22;4334;49.982;8.398;2023-03-14T14:23:58;12.00;99.90
8593;DHT22;4334;49.982;8.398;2023-03-14T14:26:27;12.40;99.90
8593;DHT22;4334;49.982;8.398;2023-03-14T14:29:02;11.90;99.90
8593;DHT22;4334;49.982;8.398;2023-03-14T14:31:29;11.30;99.90
8593;DHT22;4334;49.982;8.398;2023-03-14T14:33:57;10.90;99.90
8593;DHT22;4334;49.982;8.398;2023-03-14T14:36:27;13.90;99.90
8593;DHT22;4334;49.982;8.398;2023-03-14T20:36:42;4.60;99.90
8593;DHT22;4334;49.982;8.398;2023-03-14T20:39:09;4.80;99.90
8593;DHT22;4334;49.982;8.398;2023-03-14T20:41:38;4.60;99.90
8593;DHT22;4334;49.982;8.398;2023-03-14T20:44:06;4.70;99.90
8593;DHT22;4334;49.982;8.398;2023-03-14T20:46:35;4.70;99.90
8593;DHT22;4334;49.982;8.398;2023-03-14T20:49:02;4.70;99.90
8593;DHT22;4334;49.982;8.398;2023-03-14T20:51:29;4.70;99.90
8593;DHT22;4334;49.982;8.398;2023-03-14T20:53:57;4.80;99.90
8593;DHT22;4334;49.982;8.398;2023-03-14T20:56:24;5.60;99.90
8593;DHT22;4334;49.982;8.398;2023-03-14T20:58:51;4.90;99.90
8593;DHT22;4334;49.982;8.398;2023-03-14T21:01:17;4.80;99.90
8593;DHT22;4334;49.982;8.398;2023-03-14T21:03:44;4.80;99.90
8593;DHT22;4334;49.982;8.398;2023-03-14T21:06:12;4.70;99.90
8593;DHT22;4334;49.982;8.398;2023-03-14T21:08:38;4.70;99.90
8593;DHT22;4334;49.982;8.398;2023-03-14T21:11:08;4.70;99.90
8593;DHT22;4334;49.982;8.398;2023-03-14T21:13:35;4.70;99.90
8593;DHT22;4334;49.982;8.398;2023-03-14T21:16:02;4.60;99.90
8593;DHT22;4334;49.982;8.398;2023-03-14T21:18:29;4.60;99.90
8593;DHT22;4334;49.982;8.398;2023-03-14T21:20:57;4.70;99.90
8593;DHT22;4334;49.982;8.398;2023-03-14T21:23:24;4.80;99.90
8593;DHT22;4334;49.982;8.398;2023-03-14T21:25:52;4.70;99.90
8593;DHT22;4334;49.982;8.398;2023-03-14T21:28:21;4.70;99.90
8593;DHT22;4334;49.982;8.398;2023-03-14T21:30:48;4.70;99.90
8593;DHT22;4334;49.982;8.398;2023-03-14T21:33:15;4.70;99.90
8593;DHT22;4334;49.982;8.398;2023-03-14T21:35:42;4.70;99.90
8593;DHT22;4334;49.982;8.398;2023-03-14T21:38:09;4.80;99.90
8593;DHT22;4334;49.982;8.398;2023-03-14T21:40:36;4.70;99.90
8593;DHT22;4334;49.982;8.398;2023-03-14T21:43:03;4.80;99.90
8593;DHT22;4334;49.982;8.398;2023-03-14T21:45:31;4.70;99.90
8593;DHT22;4334;49.982;8.398;2023-03-14T21:48:00;4.70;99.90
8593;DHT22;4334;49.982;8.398;2023-03-14T21:50:27;4.70;99.90
8593;DHT22;4334;49.982;8.398;2023-03-14T21:52:54;4.70;99.90
8593;DHT22;4334;49.982;8.398;2023-03-14T21:55:22;4.70;99.90
8593;DHT22;4334;49.982;8.398;2023-03-14T21:57:50;4.60;99.90
8593;DHT22;4334;49.982;8.398;2023-03-14T22:00:18;4.70;99.90
8593;DHT22;4334;49.982;8.398;2023-03-14T22:02:49;4.60;99.90
8593;DHT22;4334;49.982;8.398;2023-03-14T22:05:18;4.60;99.90
8593;DHT22;4334;49.982;8.398;2023-03-14T22:07:45;4.60;99.90
8593;DHT22;4334;49.982;8.398;2023-03-14T22:10:13;4.70;99.90
8593;DHT22;4334;49.982;8.398;2023-03-14T22:12:40;4.60;99.90
8593;DHT22;4334;49.982;8.398;2023-03-14T22:15:09;7.10;99.90
8593;DHT22;4334;49.982;8.398;2023-03-14T22:17:37;4.60;99.90
8593;DHT22;4334;49.982;8.398;2023-03-14T22:20:07;7.00;99.90
8593;DHT22;4334;49.982;8.398;2023-03-14T22:22:35;4.70;99.90
8593;DHT22;4334;49.982;8.398;2023-03-14T22:25:02;4.70;99.90
8593;DHT22;4334;49.982;8.398;2023-03-14T22:27:29;4.70;99.90
8593;DHT22;4334;49.982;8.398;2023-03-14T22:29:56;4.60;99.90
8593;DHT22;4334;49.982;8.398;2023-03-14T22:32:22;4.70;99.90
8593;DHT22;4334;49.982;8.398;2023-03-14T22:34:49;4.60;99.90
8593;DHT22;4334;49.982;8.398;2023-03-14T22:37:17;4.60;99.90
8593;DHT22;4334;49.982;8.398;2023-03-14T22:39:44;7.50;99.90
8593;DHT22;4334;49.982;8.398;2023-03-14T22:42:11;4.60;99.90
8593;DHT22;4334;49.982;8.398;2023-03-14T22:44:38;4.60;99.90
8593;DHT22;4334;49.982;8.398;2023-03-14T22:47:05;4.60;99.90
8593;DHT22;4334;49.982;8.398;2023-03-14T22:49:32;4.50;99.90
8593;DHT22;4334;49.982;8.398;2023-03-14T22:51:59;4.60;99.90
8593;DHT22;4334;49.982;8.398;2023-03-14T22:54:27;4.60;99.90
8593;DHT22;4334;49.982;8.398;2023-03-14T22:56:54;4.50;99.90
8593;DHT22;4334;49.982;8.398;2023-03-14T22:59:21;4.50;99.90
8593;DHT22;4334;49.982;8.398;2023-03-14T23:01:47;8.20;99.90
8593;DHT22;4334;49.982;8.398;2023-03-14T23:04:14;4.50;99.90
8593;DHT22;4334;49.982;8.398;2023-03-14T23:06:41;4.60;99.90
8593;DHT22;4334;49.982;8.398;2023-03-14T23:09:08;4.60;99.90
8593;DHT22;4334;49.982;8.398;2023-03-14T23:11:38;6.60;99.90
8593;DHT22;4334;49.982;8.398;2023-03-14T23:14:05;4.50;99.90
8593;DHT22;4334;49.982;8.398;2023-03-14T23:16:32;4.50;99.90
8593;DHT22;4334;49.982;8.398;2023-03-14T23:18:59;4.50;99.90
8593;DHT22;4334;49.982;8.398;2023-03-14T23:21:26;4.40;99.90
8593;DHT22;4334;49.982;8.398;2023-03-14T23:23:53;6.70;99.90
8593;DHT22;4334;49.982;8.398;2023-03-14T23:26:21;4.30;99.90
8593;DHT22;4334;49.982;8.398;2023-03-14T23:28:51;4.30;99.90
8593;DHT22;4334;49.982;8.398;2023-03-14T23:31:19;4.30;99.90
8593;DHT22;4334;49.982;8.398;2023-03-14T23:33:46;4.20;99.90
8593;DHT22;4334;49.982;8.398;2023-03-14T23:36:14;4.20;99.90
8593;DHT22;4334;49.982;8.398;2023-03-14T23:38:43;4.10;99.90
8593;DHT22;4334;49.982;8.398;2023-03-14T23:41:11;3.90;99.90
8593;DHT22;4334;49.982;8.398;2023-03-14T23:43:40;3.80;99.90
8593;DHT22;4334;49.982;8.398;2023-03-14T23:46:08;3.60;99.90
8593;DHT22;4334;49.982;8.398;2023-03-14T23:48:35;4.50;99.90
8593;DHT22;4334;49.982;8.398;2023-03-14T23:51:05;3.50;99.90
8593;DHT22;4334;49.982;8.398;2023-03-14T23:53:32;3.30;99.90
8593;DHT22;4334;49.982;8.398;2023-03-14T23:55:59;3.20;99.90
8593;DHT22;4334;49.982;8.398;2023-03-14T23:58:26;3.10;99.90
